createdAt,value
2022-09-06T00:02:09.012Z,9.57
2022-09-06T00:04:36.808Z,9.56
2022-09-06T00:07:05.629Z,9.54
2022-09-06T00:09:33.334Z,9.52
2022-09-06T00:12:00.977Z,9.50
2022-09-06T00:14:29.065Z,9.51
2022-09-06T00:16:56.953Z,9.53
2022-09-06T00:19:24.945Z,9.54
2022-09-06T00:21:52.733Z,9.53
2022-09-06T00:24:20.344Z,9.49
2022-09-06T00:26:47.954Z,9.46
2022-09-06T00:29:15.642Z,9.45
2022-09-06T00:31:44.149Z,9.43
2022-09-06T00:34:11.826Z,9.41
2022-09-06T00:36:39.538Z,9.38
2022-09-06T00:39:07.196Z,9.32
2022-09-06T00:41:34.889Z,9.29
2022-09-06T00:44:02.890Z,9.27
2022-09-06T00:46:31.856Z,9.26
2022-09-06T00:49:09.756Z,9.24
2022-09-06T00:51:38.208Z,9.21
2022-09-06T00:54:08.108Z,9.19
2022-09-06T00:56:39.225Z,9.17
2022-09-06T00:59:07.416Z,9.16
2022-09-06T01:01:35.328Z,9.14
2022-09-06T01:04:03.647Z,9.10
2022-09-06T01:06:42.388Z,9.06
2022-09-06T01:09:22.928Z,9.02
2022-09-06T01:12:28.336Z,8.95
2022-09-06T01:15:14.548Z,8.88
2022-09-06T01:17:42.104Z,8.81
2022-09-06T01:20:10.109Z,8.74
2022-09-06T01:22:56.090Z,8.68
2022-09-06T01:25:41.912Z,8.60
2022-09-06T01:28:18.622Z,8.54
2022-09-06T01:30:54.036Z,8.46
2022-09-06T01:33:32.630Z,8.38
2022-09-06T01:36:07.003Z,8.29
2022-09-06T01:38:35.329Z,8.24
2022-09-06T01:41:03.171Z,8.18
2022-09-06T01:43:33.608Z,8.14
2022-09-06T01:46:04.344Z,8.10
2022-09-06T01:48:48.101Z,8.06
2022-09-06T01:51:28.776Z,8.01
2022-09-06T01:54:15.710Z,7.97
2022-09-06T01:57:02.030Z,7.92
2022-09-06T01:59:55.209Z,7.87
2022-09-06T02:02:28.245Z,7.82
2022-09-06T02:05:09.671Z,7.77
2022-09-06T02:07:38.921Z,7.71
2022-09-06T02:10:16.314Z,7.68
2022-09-06T02:12:46.035Z,7.63
2022-09-06T02:15:21.793Z,7.57
2022-09-06T02:18:09.921Z,7.52
2022-09-06T02:20:45.759Z,7.46
2022-09-06T02:23:15.351Z,7.40
2022-09-06T02:25:44.362Z,7.36
2022-09-06T02:28:12.094Z,7.33
2022-09-06T02:30:43.591Z,7.28
2022-09-06T02:33:14.953Z,7.21
2022-09-06T02:35:49.814Z,7.16
2022-09-06T02:38:18.624Z,7.11
2022-09-06T02:40:46.846Z,7.09
2022-09-06T02:43:14.737Z,7.06
2022-09-06T02:45:42.656Z,7.04
2022-09-06T02:48:10.509Z,7.01
2022-09-06T02:50:38.146Z,6.99
2022-09-06T02:53:07.174Z,6.96
2022-09-06T02:55:35.059Z,6.93
2022-09-06T02:58:03.657Z,6.89
2022-09-06T03:00:31.605Z,6.87
2022-09-06T03:02:59.633Z,6.84
2022-09-06T03:05:27.880Z,6.83
2022-09-06T03:07:56.529Z,6.81
2022-09-06T03:10:25.927Z,6.78
2022-09-06T03:12:53.719Z,6.78
2022-09-06T03:15:21.784Z,6.79
2022-09-06T03:17:50.110Z,6.80
2022-09-06T03:20:17.852Z,6.79
2022-09-06T03:22:46.085Z,6.79
2022-09-06T03:25:13.986Z,6.77
2022-09-06T03:27:41.588Z,6.77
2022-09-06T03:30:09.842Z,6.78
2022-09-06T03:32:37.449Z,6.78
2022-09-06T03:35:05.690Z,6.79
2022-09-06T03:37:34.140Z,6.80
2022-09-06T03:40:03.324Z,6.80
2022-09-06T03:42:31.082Z,6.82
2022-09-06T03:44:58.834Z,6.86
2022-09-06T03:47:26.513Z,6.88
2022-09-06T03:49:54.303Z,6.90
2022-09-06T03:52:21.946Z,6.90
2022-09-06T03:54:49.999Z,6.90
2022-09-06T03:57:18.437Z,6.90
2022-09-06T03:59:46.511Z,6.89
2022-09-06T04:02:14.304Z,6.90
2022-09-06T04:04:42.003Z,6.89
2022-09-06T04:07:09.912Z,6.88
2022-09-06T04:09:38.121Z,6.85
2022-09-06T04:12:05.901Z,6.80
2022-09-06T04:14:33.545Z,6.80
2022-09-06T04:17:01.469Z,6.77
2022-09-06T04:19:29.177Z,6.75
2022-09-06T04:21:56.943Z,6.74
2022-09-06T04:24:25.133Z,6.74
2022-09-06T04:26:53.199Z,6.74
2022-09-06T04:29:20.935Z,6.75
2022-09-06T04:31:48.735Z,6.76
2022-09-06T04:34:16.564Z,6.76
2022-09-06T04:36:48.191Z,6.78
2022-09-06T04:39:16.972Z,6.80
2022-09-06T04:41:44.618Z,6.82
2022-09-06T04:44:12.430Z,6.85
2022-09-06T04:46:41.717Z,6.88
2022-09-06T04:49:09.415Z,6.93
2022-09-06T04:51:39.997Z,7.00
2022-09-06T04:54:08.250Z,7.09
2022-09-06T04:56:35.939Z,7.28
2022-09-06T04:59:03.632Z,7.50
2022-09-06T05:01:31.472Z,7.74
2022-09-06T05:03:59.800Z,8.00
2022-09-06T05:06:28.353Z,8.26
2022-09-06T05:08:56.073Z,8.51
2022-09-06T05:11:23.848Z,8.74
2022-09-06T05:13:51.922Z,8.96
2022-09-06T05:16:19.710Z,9.16
2022-09-06T05:18:47.417Z,9.34
2022-09-06T05:21:15.884Z,9.48
2022-09-06T05:23:43.688Z,9.65
2022-09-06T05:26:11.396Z,9.85
2022-09-06T05:28:39.057Z,10.05
2022-09-06T05:31:11.921Z,10.22
2022-09-06T05:33:39.783Z,10.37
2022-09-06T05:36:07.955Z,10.54
2022-09-06T05:38:35.643Z,10.71
2022-09-06T05:41:03.497Z,10.90
2022-09-06T05:43:31.282Z,11.10
2022-09-06T05:45:59.458Z,11.32
2022-09-06T05:48:28.229Z,11.53
2022-09-06T05:51:07.192Z,11.75
2022-09-06T05:53:45.493Z,11.98
2022-09-06T05:56:14.353Z,12.22
2022-09-06T05:58:42.149Z,12.42
2022-09-06T06:01:19.772Z,12.64
2022-09-06T06:03:51.983Z,12.89
2022-09-06T06:06:21.023Z,13.05
2022-09-06T06:08:49.102Z,13.12
2022-09-06T06:11:17.382Z,13.26
2022-09-06T06:13:45.484Z,13.46
2022-09-06T06:16:15.177Z,13.68
2022-09-06T06:18:47.648Z,13.85
2022-09-06T06:21:21.526Z,14.02
2022-09-06T06:24:01.057Z,14.24
2022-09-06T06:26:31.759Z,14.46
2022-09-06T06:29:02.040Z,14.62
2022-09-06T06:31:31.705Z,14.74
2022-09-06T06:33:59.490Z,14.86
2022-09-06T06:36:30.682Z,14.98
2022-09-06T06:38:58.830Z,15.14
2022-09-06T06:41:29.051Z,15.25
2022-09-06T06:43:58.392Z,15.35
2022-09-06T06:46:28.362Z,15.50
2022-09-06T06:48:56.617Z,15.62
2022-09-06T06:51:26.728Z,15.71
2022-09-06T06:53:56.773Z,15.88
2022-09-06T06:56:37.453Z,16.11
2022-09-06T06:59:06.980Z,16.37
2022-09-06T07:01:36.084Z,16.53
2022-09-06T07:04:05.505Z,16.66
2022-09-06T07:12:28.834Z,17.18
2022-09-06T07:14:56.516Z,17.31
2022-09-06T07:17:24.233Z,17.50
2022-09-06T07:22:40.409Z,17.73
2022-09-06T07:25:09.805Z,17.73
2022-09-06T07:27:53.063Z,17.78
2022-09-06T07:30:20.880Z,17.79
2022-09-06T07:32:48.971Z,17.83
2022-09-06T07:35:16.701Z,17.87
2022-09-06T07:37:51.903Z,17.88
2022-09-06T07:40:19.792Z,18.04
2022-09-06T07:42:47.739Z,18.27
2022-09-06T07:45:16.099Z,18.43
2022-09-06T07:47:59.442Z,18.33
2022-09-06T07:53:24.770Z,18.59
2022-09-06T07:55:57.608Z,18.83
2022-09-06T07:58:25.576Z,19.05
2022-09-06T08:00:53.314Z,19.23
2022-09-06T08:03:21.241Z,19.36
2022-09-06T08:11:31.681Z,19.57
2022-09-06T08:14:00.914Z,19.43
2022-09-06T08:16:29.327Z,19.55
2022-09-06T08:18:58.782Z,19.76
2022-09-06T08:21:28.664Z,19.83
2022-09-06T08:23:58.360Z,19.98
2022-09-06T08:26:27.216Z,20.17
2022-09-06T08:29:00.111Z,20.35
2022-09-06T08:31:29.521Z,20.50
2022-09-06T08:33:58.140Z,22.02
2022-09-06T08:36:32.363Z,25.27
2022-09-06T08:39:01.545Z,27.72
2022-09-06T08:41:44.775Z,29.73
2022-09-06T08:44:57.006Z,31.53
2022-09-06T08:47:25.553Z,31.97
2022-09-06T08:49:57.677Z,33.18
2022-09-06T08:52:54.438Z,34.26
2022-09-06T08:55:37.876Z,34.39
2022-09-06T08:58:43.165Z,35.28
2022-09-06T09:01:25.404Z,37.13
2022-09-06T09:03:56.305Z,36.83
2022-09-06T09:06:24.822Z,36.17
2022-09-06T09:08:53.251Z,35.47
2022-09-06T09:11:21.867Z,34.58
2022-09-06T09:14:11.570Z,33.50
2022-09-06T09:16:40.014Z,32.47
2022-09-06T09:19:09.345Z,31.46
2022-09-06T09:21:38.348Z,30.33
2022-09-06T09:24:15.982Z,31.41
2022-09-06T09:26:53.758Z,33.74
2022-09-06T09:29:26.707Z,35.99
2022-09-06T09:31:56.020Z,37.45
2022-09-06T09:34:50.994Z,39.11
2022-09-06T09:40:33.478Z,42.43
2022-09-06T09:43:22.066Z,43.42
2022-09-06T09:46:15.611Z,44.84
2022-09-06T09:49:04.685Z,47.12
2022-09-06T09:51:43.909Z,48.54
2022-09-06T09:54:13.940Z,48.53
2022-09-06T09:56:44.338Z,48.98
2022-09-06T09:59:33.198Z,49.35
2022-09-06T10:02:03.068Z,49.61
2022-09-06T10:04:48.994Z,50.14
2022-09-06T10:07:19.711Z,50.76
2022-09-06T10:09:49.359Z,51.99
2022-09-06T10:12:19.470Z,52.35
2022-09-06T10:14:49.272Z,51.72
2022-09-06T10:17:24.260Z,52.72
2022-09-06T10:19:51.907Z,53.36
2022-09-06T10:22:31.330Z,53.41
2022-09-06T10:25:06.764Z,53.05
2022-09-06T10:27:35.916Z,53.08
2022-09-06T10:30:06.737Z,54.11
2022-09-06T10:32:42.905Z,55.08
2022-09-06T10:35:37.396Z,55.63
2022-09-06T10:38:32.883Z,56.72
2022-09-06T10:41:09.507Z,56.10
2022-09-06T10:43:45.578Z,55.37
2022-09-06T10:46:16.414Z,53.21
2022-09-06T10:48:47.392Z,51.17
2022-09-06T10:51:34.566Z,50.55
2022-09-06T10:54:08.555Z,49.67
2022-09-06T10:56:36.867Z,49.55
2022-09-06T10:59:40.014Z,49.43
2022-09-06T11:02:32.777Z,48.82
2022-09-06T11:10:48.183Z,45.64
2022-09-06T11:13:20.424Z,44.54
2022-09-06T11:16:20.497Z,43.63
2022-09-06T11:19:02.178Z,45.16
2022-09-06T11:22:12.152Z,46.14
2022-09-06T11:25:06.155Z,44.52
2022-09-06T11:27:36.794Z,41.50
2022-09-06T11:30:06.839Z,39.40
2022-09-06T11:32:48.873Z,37.52
2022-09-06T11:35:28.612Z,36.85
2022-09-06T11:38:19.340Z,35.87
2022-09-06T11:40:49.286Z,33.41
2022-09-06T11:43:41.538Z,31.96
2022-09-06T11:46:09.407Z,31.90
2022-09-06T11:48:45.085Z,31.81
2022-09-06T11:51:31.250Z,31.62
2022-09-06T11:53:59.203Z,30.88
2022-09-06T11:56:31.324Z,29.72
2022-09-06T11:59:08.292Z,29.25
2022-09-06T12:01:37.301Z,29.06
2022-09-06T12:04:07.345Z,28.59
2022-09-06T12:06:42.872Z,28.32
2022-09-06T12:09:30.504Z,28.00
2022-09-06T12:11:59.063Z,27.74
2022-09-06T12:14:49.196Z,27.52
2022-09-06T12:17:20.812Z,27.03
2022-09-06T12:19:56.079Z,26.40
2022-09-06T12:22:26.805Z,25.82
2022-09-06T12:24:57.104Z,25.28
2022-09-06T12:27:29.675Z,24.71
2022-09-06T12:29:59.805Z,24.37
2022-09-06T12:32:36.213Z,24.27
2022-09-06T12:38:15.899Z,23.26
2022-09-06T12:40:48.685Z,22.94
2022-09-06T12:43:17.853Z,23.06
2022-09-06T12:45:47.315Z,23.24
2022-09-06T12:48:33.655Z,23.49
2022-09-06T12:51:03.480Z,23.61
2022-09-06T12:53:32.099Z,23.80
2022-09-06T12:56:08.785Z,23.72
2022-09-06T12:58:37.671Z,23.49
2022-09-06T13:01:23.125Z,23.41
2022-09-06T13:04:02.853Z,23.22
2022-09-06T13:06:36.516Z,23.11
2022-09-06T13:09:05.676Z,23.02
2022-09-06T13:11:36.839Z,22.77
2022-09-06T13:14:18.607Z,22.48
2022-09-06T13:16:48.755Z,22.21
2022-09-06T13:19:31.898Z,21.86
2022-09-06T13:22:00.426Z,21.55
2022-09-06T13:24:46.910Z,21.38
2022-09-06T13:27:35.787Z,21.23
2022-09-06T13:30:06.959Z,21.22
2022-09-06T13:32:36.356Z,21.25
2022-09-06T13:35:04.936Z,21.27
2022-09-06T13:37:35.618Z,21.25
2022-09-06T13:41:08.994Z,21.21
2022-09-06T13:43:33.413Z,21.10
2022-09-06T13:46:09.960Z,20.98
2022-09-06T13:48:39.581Z,20.92
2022-09-06T13:51:08.234Z,20.88
2022-09-06T13:53:36.407Z,20.81
2022-09-06T13:56:05.058Z,20.72
2022-09-06T13:58:33.183Z,20.59
2022-09-06T14:01:01.502Z,20.47
2022-09-06T14:03:31.782Z,20.44
2022-09-06T14:06:00.405Z,20.45
2022-09-06T14:08:43.866Z,20.51
2022-09-06T14:11:17.588Z,20.46
2022-09-06T14:13:45.397Z,20.62
2022-09-06T14:16:13.457Z,21.11
2022-09-06T14:18:41.511Z,21.28
2022-09-06T14:21:09.372Z,21.18
2022-09-06T14:23:37.169Z,21.07
2022-09-06T14:26:05.931Z,21.03
2022-09-06T14:28:34.097Z,20.90
2022-09-06T14:31:36.916Z,20.78
2022-09-06T14:34:04.570Z,20.86
2022-09-06T14:36:34.619Z,21.27
2022-09-06T14:39:02.372Z,21.70
2022-09-06T14:41:30.379Z,22.20
2022-09-06T14:43:59.405Z,22.20
2022-09-06T14:46:28.029Z,22.02
2022-09-06T14:48:58.379Z,21.83
2022-09-06T14:51:26.285Z,21.67
2022-09-06T14:54:00.395Z,21.44
2022-09-06T14:56:28.193Z,21.35
2022-09-06T14:58:57.498Z,21.17
2022-09-06T15:01:28.616Z,20.87
2022-09-06T15:03:58.769Z,20.61
2022-09-06T15:06:27.615Z,20.42
2022-09-06T15:08:59.365Z,20.29
2022-09-06T15:11:35.375Z,20.19
2022-09-06T15:14:05.130Z,20.06
2022-09-06T15:16:33.252Z,19.92
2022-09-06T15:19:02.875Z,19.81
2022-09-06T15:21:31.705Z,19.70
2022-09-06T15:24:00.817Z,19.59
2022-09-06T15:26:29.393Z,19.47
2022-09-06T15:28:57.447Z,19.40
2022-09-06T15:31:25.482Z,19.31
2022-09-06T15:33:53.886Z,19.23
2022-09-06T15:36:22.061Z,19.16
2022-09-06T15:38:52.229Z,19.05
2022-09-06T15:41:25.206Z,18.97
2022-09-06T15:43:56.718Z,18.88
2022-09-06T15:46:34.938Z,18.80
2022-09-06T15:49:06.544Z,18.69
2022-09-06T15:51:35.371Z,18.60
2022-09-06T15:54:03.356Z,18.51
2022-09-06T15:56:31.113Z,18.44
2022-09-06T15:58:59.005Z,18.39
2022-09-06T16:01:27.058Z,18.35
2022-09-06T16:04:05.551Z,18.31
2022-09-06T16:06:37.158Z,18.26
2022-09-06T16:09:08.106Z,18.19
2022-09-06T16:11:37.094Z,18.12
2022-09-06T16:14:06.667Z,18.04
2022-09-06T16:16:35.904Z,17.96
2022-09-06T16:19:04.373Z,17.86
2022-09-06T16:21:33.672Z,17.78
2022-09-06T16:24:02.914Z,17.69
2022-09-06T16:26:37.711Z,17.56
2022-09-06T16:29:07.917Z,17.43
2022-09-06T16:31:40.104Z,17.30
2022-09-06T16:34:09.752Z,17.18
2022-09-06T16:36:38.280Z,17.05
2022-09-06T16:39:08.019Z,16.90
2022-09-06T16:41:41.171Z,16.75
2022-09-06T16:44:14.447Z,16.60
2022-09-06T16:46:43.800Z,16.43
2022-09-06T16:49:11.579Z,16.28
2022-09-06T16:51:39.406Z,16.13
2022-09-06T16:54:07.212Z,15.98
2022-09-06T16:56:36.058Z,15.83
2022-09-06T16:59:06.836Z,15.67
2022-09-06T17:01:36.263Z,15.52
2022-09-06T17:04:05.527Z,15.36
2022-09-06T17:06:38.366Z,15.21
2022-09-06T17:09:06.217Z,15.04
2022-09-06T17:11:34.538Z,14.90
2022-09-06T17:14:02.332Z,14.74
2022-09-06T17:16:49.083Z,14.59
2022-09-06T17:19:18.124Z,14.41
2022-09-06T17:21:47.768Z,14.27
2022-09-06T17:24:15.721Z,14.12
2022-09-06T17:26:43.644Z,13.97
2022-09-06T17:29:11.789Z,13.83
2022-09-06T17:31:39.902Z,13.70
2022-09-06T17:34:07.843Z,13.56
2022-09-06T17:36:36.501Z,13.42
2022-09-06T17:39:07.729Z,13.29
2022-09-06T17:41:36.548Z,13.16
2022-09-06T17:44:06.870Z,13.04
2022-09-06T17:46:34.705Z,12.93
2022-09-06T17:49:03.284Z,12.79
2022-09-06T17:51:32.789Z,12.68
2022-09-06T17:54:00.693Z,12.58
2022-09-06T17:56:30.333Z,12.46
2022-09-06T17:58:59.416Z,12.35
2022-09-06T18:01:30.962Z,12.23
2022-09-06T18:03:59.637Z,12.10
2022-09-06T18:06:28.859Z,11.98
2022-09-06T18:08:59.849Z,11.86
2022-09-06T18:11:30.057Z,11.75
2022-09-06T18:14:02.124Z,11.66
2022-09-06T18:16:30.728Z,11.58
2022-09-06T18:19:00.817Z,11.51
2022-09-06T18:21:31.027Z,11.42
2022-09-06T18:23:59.054Z,11.34
2022-09-06T18:26:27.288Z,11.24
2022-09-06T18:28:55.396Z,11.14
2022-09-06T18:31:25.115Z,11.05
2022-09-06T18:33:56.317Z,10.96
2022-09-06T18:36:27.526Z,10.88
2022-09-06T18:38:57.809Z,10.78
2022-09-06T18:41:43.981Z,10.70
2022-09-06T18:44:11.711Z,10.61
2022-09-06T18:46:39.526Z,10.53
2022-09-06T18:49:07.390Z,10.44
2022-09-06T18:51:35.486Z,10.36
2022-09-06T18:54:03.333Z,10.29
2022-09-06T18:56:31.373Z,10.20
2022-09-06T18:59:00.666Z,10.13
2022-09-06T19:01:29.968Z,10.06
2022-09-06T19:03:58.505Z,10.02
2022-09-06T19:06:28.154Z,9.96
2022-09-06T19:09:00.948Z,9.90
2022-09-06T19:11:29.369Z,9.84
2022-09-06T19:13:58.350Z,9.79
2022-09-06T19:16:27.807Z,9.75
2022-09-06T19:18:56.923Z,9.70
2022-09-06T19:21:25.578Z,9.64
2022-09-06T19:23:59.459Z,9.59
2022-09-06T19:26:30.875Z,9.52
2022-09-06T19:29:04.804Z,9.44
2022-09-06T19:31:34.872Z,9.36
2022-09-06T19:34:04.029Z,9.31
2022-09-06T19:36:32.288Z,9.25
2022-09-06T19:39:08.293Z,9.20
2022-09-06T19:41:39.955Z,9.16
2022-09-06T19:44:09.041Z,9.12
2022-09-06T19:46:37.661Z,9.08
2022-09-06T19:49:08.146Z,9.01
2022-09-06T19:51:36.872Z,8.95
2022-09-06T19:54:05.437Z,8.89
2022-09-06T19:56:35.137Z,8.81
2022-09-06T19:59:08.809Z,8.74
2022-09-06T20:01:38.086Z,8.67
2022-09-06T20:04:08.253Z,8.61
2022-09-06T20:06:36.640Z,8.54
2022-09-06T20:09:06.715Z,8.49
2022-09-06T20:11:36.002Z,8.43
2022-09-06T20:14:04.084Z,8.37
2022-09-06T20:16:32.553Z,8.32
2022-09-06T20:19:00.705Z,8.26
2022-09-06T20:21:29.720Z,8.19
2022-09-06T20:23:59.383Z,8.14
2022-09-06T20:26:28.333Z,8.08
2022-09-06T20:29:01.626Z,8.03
2022-09-06T20:31:31.127Z,7.98
2022-09-06T20:34:00.681Z,7.95
2022-09-06T20:36:30.156Z,7.91
2022-09-06T20:38:57.941Z,7.88
2022-09-06T20:41:27.280Z,7.83
2022-09-06T20:43:56.146Z,7.77
2022-09-06T20:46:26.640Z,7.73
2022-09-06T20:48:57.566Z,7.68
2022-09-06T20:51:26.040Z,7.65
2022-09-06T20:53:55.905Z,7.63
2022-09-06T20:56:33.625Z,7.62
2022-09-06T20:59:03.284Z,7.61
2022-09-06T21:01:34.368Z,7.59
2022-09-06T21:04:04.120Z,7.56
2022-09-06T21:06:34.418Z,7.54
2022-09-06T21:09:08.337Z,7.50
2022-09-06T21:11:36.393Z,7.45
2022-09-06T21:14:05.664Z,7.40
2022-09-06T21:16:34.020Z,7.36
2022-09-06T21:19:05.203Z,7.34
2022-09-06T21:21:34.618Z,7.36
2022-09-06T21:24:04.838Z,7.39
2022-09-06T21:26:32.789Z,7.37
2022-09-06T21:29:00.481Z,7.33
2022-09-06T21:31:33.073Z,7.28
2022-09-06T21:34:07.523Z,7.25
2022-09-06T21:36:37.292Z,7.23
2022-09-06T21:39:05.821Z,7.20
2022-09-06T21:41:36.974Z,7.16
2022-09-06T21:44:06.910Z,7.14
2022-09-06T21:46:37.124Z,7.13
2022-09-06T21:49:08.278Z,7.11
2022-09-06T21:51:37.898Z,7.09
2022-09-06T21:54:06.102Z,7.07
2022-09-06T21:56:36.350Z,7.07
2022-09-06T21:59:05.689Z,7.11
2022-09-06T22:01:35.432Z,7.20
2022-09-06T22:04:04.627Z,7.33
2022-09-06T22:06:33.554Z,7.43
2022-09-06T22:09:04.332Z,7.45
2022-09-06T22:11:33.911Z,7.45
2022-09-06T22:14:05.842Z,7.46
2022-09-06T22:16:37.645Z,7.48
2022-09-06T22:19:06.648Z,7.49
2022-09-06T22:21:34.896Z,7.53
2022-09-06T22:24:06.269Z,7.57
2022-09-06T22:26:36.560Z,7.57
2022-09-06T22:29:07.279Z,7.56
2022-09-06T22:31:35.676Z,7.56
2022-09-06T22:34:04.031Z,7.54
2022-09-06T22:36:32.112Z,7.52
2022-09-06T22:39:00.801Z,7.49
2022-09-06T22:41:31.048Z,7.46
2022-09-06T22:44:00.417Z,7.43
2022-09-06T22:46:29.023Z,7.41
2022-09-06T22:48:57.154Z,7.41
2022-09-06T22:51:25.048Z,7.40
2022-09-06T22:53:52.785Z,7.40
2022-09-06T22:56:21.134Z,7.41
2022-09-06T22:58:49.815Z,7.39
2022-09-06T23:01:17.714Z,7.35
2022-09-06T23:03:46.873Z,7.32
2022-09-06T23:06:15.058Z,7.27
2022-09-06T23:08:43.010Z,7.21
2022-09-06T23:11:16.494Z,7.14
2022-09-06T23:13:45.823Z,7.08
2022-09-06T23:16:15.357Z,7.03
2022-09-06T23:18:45.056Z,6.96
2022-09-06T23:21:17.029Z,6.91
2022-09-06T23:23:45.836Z,6.86
2022-09-06T23:26:19.868Z,6.81
2022-09-06T23:28:52.032Z,6.77
2022-09-06T23:31:19.974Z,6.72
2022-09-06T23:33:52.049Z,6.68
2022-09-06T23:36:19.784Z,6.65
2022-09-06T23:38:47.559Z,6.64
2022-09-06T23:41:15.720Z,6.65
2022-09-06T23:43:43.867Z,6.62
2022-09-06T23:46:13.118Z,6.59
2022-09-06T23:48:41.022Z,6.54
2022-09-06T23:51:09.330Z,6.50
2022-09-06T23:53:37.124Z,6.47
2022-09-06T23:56:05.787Z,6.43
2022-09-06T23:58:33.848Z,6.42
